sensor_id;sensor_type;location;lat;lon;timestamp;P1;durP1;ratioP1;P2;durP2;ratioP2
77612;SDS011;66777;52.282;5.960;2023-05-09T00:01:54;192.70;;;50.35;;
77612;SDS011;66777;52.282;5.960;2023-05-09T00:04:22;183.65;;;48.30;;
77612;SDS011;66777;52.282;5.960;2023-05-09T00:06:49;219.90;;;51.58;;
77612;SDS011;66777;52.282;5.960;2023-05-09T00:09:15;218.20;;;52.75;;
77612;SDS011;66777;52.282;5.960;2023-05-09T00:11:41;209.45;;;53.80;;
77612;SDS011;66777;52.282;5.960;2023-05-09T00:14:07;204.85;;;49.60;;
77612;SDS011;66777;52.282;5.960;2023-05-09T00:16:33;218.77;;;65.88;;
77612;SDS011;66777;52.282;5.960;2023-05-09T00:19:01;208.50;;;50.58;;
77612;SDS011;66777;52.282;5.960;2023-05-09T00:21:29;244.82;;;61.72;;
77612;SDS011;66777;52.282;5.960;2023-05-09T00:23:56;208.13;;;54.22;;
77612;SDS011;66777;52.282;5.960;2023-05-09T00:26:22;203.85;;;53.13;;
77612;SDS011;66777;52.282;5.960;2023-05-09T00:28:48;235.55;;;54.60;;
77612;SDS011;66777;52.282;5.960;2023-05-09T00:31:14;199.23;;;56.05;;
77612;SDS011;66777;52.282;5.960;2023-05-09T00:33:40;204.23;;;50.03;;
77612;SDS011;66777;52.282;5.960;2023-05-09T00:36:06;265.23;;;54.40;;
77612;SDS011;66777;52.282;5.960;2023-05-09T00:38:32;235.13;;;60.28;;
77612;SDS011;66777;52.282;5.960;2023-05-09T00:40:58;206.02;;;52.10;;
77612;SDS011;66777;52.282;5.960;2023-05-09T00:43:24;194.27;;;53.65;;
77612;SDS011;66777;52.282;5.960;2023-05-09T00:45:50;241.93;;;52.72;;
77612;SDS011;66777;52.282;5.960;2023-05-09T00:48:16;206.18;;;54.13;;
77612;SDS011;66777;52.282;5.960;2023-05-09T00:50:42;213.73;;;56.08;;
77612;SDS011;66777;52.282;5.960;2023-05-09T00:53:08;222.05;;;54.78;;
77612;SDS011;66777;52.282;5.960;2023-05-09T00:55:34;237.38;;;51.28;;
77612;SDS011;66777;52.282;5.960;2023-05-09T00:58:02;224.55;;;52.60;;
77612;SDS011;66777;52.282;5.960;2023-05-09T01:00:28;211.32;;;51.53;;
77612;SDS011;66777;52.282;5.960;2023-05-09T01:02:54;201.13;;;49.40;;
77612;SDS011;66777;52.282;5.960;2023-05-09T01:05:21;214.32;;;51.63;;
77612;SDS011;66777;52.282;5.960;2023-05-09T01:07:57;235.95;;;53.95;;
77612;SDS011;66777;52.282;5.960;2023-05-09T01:10:37;223.98;;;51.25;;
77612;SDS011;66777;52.282;5.960;2023-05-09T01:15:45;228.05;;;50.97;;
77612;SDS011;66777;52.282;5.960;2023-05-09T01:18:41;210.85;;;49.70;;
77612;SDS011;66777;52.282;5.960;2023-05-09T01:21:15;217.43;;;50.97;;
77612;SDS011;66777;52.282;5.960;2023-05-09T01:23:53;221.20;;;48.95;;
77612;SDS011;66777;52.282;5.960;2023-05-09T01:26:30;239.85;;;50.50;;
77612;SDS011;66777;52.282;5.960;2023-05-09T01:34:20;222.35;;;52.33;;
77612;SDS011;66777;52.282;5.960;2023-05-09T01:39:16;205.55;;;49.22;;
77612;SDS011;66777;52.282;5.960;2023-05-09T01:41:43;210.10;;;50.35;;
77612;SDS011;66777;52.282;5.960;2023-05-09T01:44:10;225.38;;;51.17;;
77612;SDS011;66777;52.282;5.960;2023-05-09T01:46:38;238.27;;;51.70;;
77612;SDS011;66777;52.282;5.960;2023-05-09T01:49:04;206.90;;;61.38;;
77612;SDS011;66777;52.282;5.960;2023-05-09T01:51:32;202.23;;;49.63;;
77612;SDS011;66777;52.282;5.960;2023-05-09T01:53:59;208.07;;;62.25;;
77612;SDS011;66777;52.282;5.960;2023-05-09T01:56:26;226.98;;;49.67;;
77612;SDS011;66777;52.282;5.960;2023-05-09T01:58:53;204.43;;;50.83;;
77612;SDS011;66777;52.282;5.960;2023-05-09T02:01:20;175.45;;;49.25;;
77612;SDS011;66777;52.282;5.960;2023-05-09T02:03:49;198.75;;;46.55;;
77612;SDS011;66777;52.282;5.960;2023-05-09T02:06:17;214.35;;;63.03;;
77612;SDS011;66777;52.282;5.960;2023-05-09T02:08:46;212.10;;;49.17;;
77612;SDS011;66777;52.282;5.960;2023-05-09T02:11:13;212.32;;;49.38;;
77612;SDS011;66777;52.282;5.960;2023-05-09T02:13:40;254.98;;;52.53;;
77612;SDS011;66777;52.282;5.960;2023-05-09T02:16:06;234.85;;;63.20;;
77612;SDS011;66777;52.282;5.960;2023-05-09T02:18:33;196.10;;;57.88;;
77612;SDS011;66777;52.282;5.960;2023-05-09T02:21:00;245.27;;;48.42;;
77612;SDS011;66777;52.282;5.960;2023-05-09T02:23:27;215.30;;;52.60;;
77612;SDS011;66777;52.282;5.960;2023-05-09T02:25:53;224.40;;;53.58;;
77612;SDS011;66777;52.282;5.960;2023-05-09T02:28:20;187.07;;;48.33;;
77612;SDS011;66777;52.282;5.960;2023-05-09T02:30:48;211.45;;;50.25;;
77612;SDS011;66777;52.282;5.960;2023-05-09T02:33:15;179.95;;;50.72;;
77612;SDS011;66777;52.282;5.960;2023-05-09T02:35:43;182.52;;;61.60;;
77612;SDS011;66777;52.282;5.960;2023-05-09T02:38:10;178.68;;;51.95;;
77612;SDS011;66777;52.282;5.960;2023-05-09T02:40:36;166.35;;;50.22;;
77612;SDS011;66777;52.282;5.960;2023-05-09T02:43:03;175.80;;;50.63;;
77612;SDS011;66777;52.282;5.960;2023-05-09T02:45:29;179.35;;;49.88;;
77612;SDS011;66777;52.282;5.960;2023-05-09T02:47:56;172.95;;;56.53;;
77612;SDS011;66777;52.282;5.960;2023-05-09T02:50:23;177.23;;;47.65;;
77612;SDS011;66777;52.282;5.960;2023-05-09T02:52:49;170.63;;;49.67;;
77612;SDS011;66777;52.282;5.960;2023-05-09T02:55:14;190.10;;;49.80;;
77612;SDS011;66777;52.282;5.960;2023-05-09T02:57:41;208.45;;;52.38;;
77612;SDS011;66777;52.282;5.960;2023-05-09T03:00:08;205.05;;;49.10;;
77612;SDS011;66777;52.282;5.960;2023-05-09T03:02:34;238.43;;;63.78;;
77612;SDS011;66777;52.282;5.960;2023-05-09T03:05:01;236.00;;;52.58;;
77612;SDS011;66777;52.282;5.960;2023-05-09T03:07:27;228.48;;;52.45;;
77612;SDS011;66777;52.282;5.960;2023-05-09T03:09:54;181.18;;;49.58;;
77612;SDS011;66777;52.282;5.960;2023-05-09T03:12:20;160.23;;;48.63;;
77612;SDS011;66777;52.282;5.960;2023-05-09T03:14:45;195.85;;;51.28;;
77612;SDS011;66777;52.282;5.960;2023-05-09T03:17:11;192.35;;;58.67;;
77612;SDS011;66777;52.282;5.960;2023-05-09T03:19:42;179.02;;;48.97;;
77612;SDS011;66777;52.282;5.960;2023-05-09T03:22:08;208.10;;;49.83;;
77612;SDS011;66777;52.282;5.960;2023-05-09T03:24:33;221.80;;;47.75;;
77612;SDS011;66777;52.282;5.960;2023-05-09T03:26:59;205.30;;;50.83;;
77612;SDS011;66777;52.282;5.960;2023-05-09T03:29:25;200.25;;;48.28;;
77612;SDS011;66777;52.282;5.960;2023-05-09T03:31:51;212.23;;;51.17;;
77612;SDS011;66777;52.282;5.960;2023-05-09T03:34:17;211.18;;;51.15;;
77612;SDS011;66777;52.282;5.960;2023-05-09T03:36:43;202.27;;;62.50;;
77612;SDS011;66777;52.282;5.960;2023-05-09T03:39:09;187.23;;;47.42;;
77612;SDS011;66777;52.282;5.960;2023-05-09T03:41:35;204.63;;;47.47;;
77612;SDS011;66777;52.282;5.960;2023-05-09T03:44:04;219.52;;;49.22;;
77612;SDS011;66777;52.282;5.960;2023-05-09T03:46:31;243.80;;;60.53;;
77612;SDS011;66777;52.282;5.960;2023-05-09T03:48:56;206.73;;;50.17;;
77612;SDS011;66777;52.282;5.960;2023-05-09T03:51:22;243.20;;;51.75;;
77612;SDS011;66777;52.282;5.960;2023-05-09T03:53:48;197.60;;;50.08;;
77612;SDS011;66777;52.282;5.960;2023-05-09T03:56:14;221.60;;;64.03;;
77612;SDS011;66777;52.282;5.960;2023-05-09T03:58:40;191.95;;;48.70;;
77612;SDS011;66777;52.282;5.960;2023-05-09T04:01:06;178.05;;;44.50;;
77612;SDS011;66777;52.282;5.960;2023-05-09T04:03:32;190.25;;;47.90;;
77612;SDS011;66777;52.282;5.960;2023-05-09T04:05:58;176.35;;;47.40;;
77612;SDS011;66777;52.282;5.960;2023-05-09T04:08:24;161.30;;;47.95;;
77612;SDS011;66777;52.282;5.960;2023-05-09T04:10:51;188.57;;;46.15;;
77612;SDS011;66777;52.282;5.960;2023-05-09T04:13:17;178.30;;;62.50;;
77612;SDS011;66777;52.282;5.960;2023-05-09T04:15:43;190.70;;;60.22;;
77612;SDS011;66777;52.282;5.960;2023-05-09T04:18:09;160.55;;;47.35;;
77612;SDS011;66777;52.282;5.960;2023-05-09T04:20:35;152.07;;;44.88;;
77612;SDS011;66777;52.282;5.960;2023-05-09T04:23:00;145.07;;;42.65;;
77612;SDS011;66777;52.282;5.960;2023-05-09T04:25:26;129.63;;;42.10;;
77612;SDS011;66777;52.282;5.960;2023-05-09T04:27:53;141.85;;;55.28;;
77612;SDS011;66777;52.282;5.960;2023-05-09T04:30:19;124.15;;;43.08;;
77612;SDS011;66777;52.282;5.960;2023-05-09T04:32:46;131.43;;;54.80;;
77612;SDS011;66777;52.282;5.960;2023-05-09T04:35:13;129.60;;;42.83;;
77612;SDS011;66777;52.282;5.960;2023-05-09T04:37:39;124.60;;;43.40;;
77612;SDS011;66777;52.282;5.960;2023-05-09T04:40:05;130.18;;;44.13;;
77612;SDS011;66777;52.282;5.960;2023-05-09T04:42:33;123.45;;;41.75;;
77612;SDS011;66777;52.282;5.960;2023-05-09T04:44:59;134.10;;;41.50;;
77612;SDS011;66777;52.282;5.960;2023-05-09T04:47:25;134.52;;;55.10;;
77612;SDS011;66777;52.282;5.960;2023-05-09T04:49:51;121.10;;;42.22;;
77612;SDS011;66777;52.282;5.960;2023-05-09T04:52:16;129.27;;;45.72;;
77612;SDS011;66777;52.282;5.960;2023-05-09T04:54:42;132.50;;;43.17;;
77612;SDS011;66777;52.282;5.960;2023-05-09T04:57:08;120.85;;;54.72;;
77612;SDS011;66777;52.282;5.960;2023-05-09T04:59:35;125.88;;;43.05;;
77612;SDS011;66777;52.282;5.960;2023-05-09T05:02:01;118.32;;;42.67;;
77612;SDS011;66777;52.282;5.960;2023-05-09T05:04:27;124.70;;;45.70;;
77612;SDS011;66777;52.282;5.960;2023-05-09T05:06:53;121.78;;;42.20;;
77612;SDS011;66777;52.282;5.960;2023-05-09T05:09:19;115.15;;;41.35;;
77612;SDS011;66777;52.282;5.960;2023-05-09T05:11:45;129.32;;;41.83;;
77612;SDS011;66777;52.282;5.960;2023-05-09T05:14:11;113.95;;;39.17;;
77612;SDS011;66777;52.282;5.960;2023-05-09T05:16:37;109.82;;;50.50;;
77612;SDS011;66777;52.282;5.960;2023-05-09T05:19:03;109.20;;;52.95;;
77612;SDS011;66777;52.282;5.960;2023-05-09T05:21:29;105.45;;;41.15;;
77612;SDS011;66777;52.282;5.960;2023-05-09T05:23:56;108.97;;;41.65;;
77612;SDS011;66777;52.282;5.960;2023-05-09T05:26:22;97.20;;;40.38;;
77612;SDS011;66777;52.282;5.960;2023-05-09T05:28:49;104.65;;;55.88;;
77612;SDS011;66777;52.282;5.960;2023-05-09T05:33:45;91.57;;;39.70;;
77612;SDS011;66777;52.282;5.960;2023-05-09T05:36:11;88.65;;;37.75;;
77612;SDS011;66777;52.282;5.960;2023-05-09T05:38:37;83.18;;;40.40;;
77612;SDS011;66777;52.282;5.960;2023-05-09T05:41:03;81.15;;;40.13;;
77612;SDS011;66777;52.282;5.960;2023-05-09T05:43:30;80.72;;;50.00;;
77612;SDS011;66777;52.282;5.960;2023-05-09T05:45:55;71.50;;;37.42;;
77612;SDS011;66777;52.282;5.960;2023-05-09T05:48:21;70.13;;;39.30;;
77612;SDS011;66777;52.282;5.960;2023-05-09T05:50:47;74.47;;;52.72;;
77612;SDS011;66777;52.282;5.960;2023-05-09T05:53:13;72.45;;;40.05;;
77612;SDS011;66777;52.282;5.960;2023-05-09T05:55:38;66.70;;;41.17;;
77612;SDS011;66777;52.282;5.960;2023-05-09T05:58:04;64.30;;;38.13;;
77612;SDS011;66777;52.282;5.960;2023-05-09T06:00:30;63.25;;;38.60;;
77612;SDS011;66777;52.282;5.960;2023-05-09T06:02:56;65.63;;;39.88;;
77612;SDS011;66777;52.282;5.960;2023-05-09T06:05:22;67.53;;;40.30;;
77612;SDS011;66777;52.282;5.960;2023-05-09T06:07:48;65.00;;;38.85;;
77612;SDS011;66777;52.282;5.960;2023-05-09T06:10:14;61.53;;;40.85;;
77612;SDS011;66777;52.282;5.960;2023-05-09T06:12:41;62.85;;;39.80;;
77612;SDS011;66777;52.282;5.960;2023-05-09T06:15:07;70.25;;;41.53;;
77612;SDS011;66777;52.282;5.960;2023-05-09T06:17:33;61.28;;;40.65;;
77612;SDS011;66777;52.282;5.960;2023-05-09T06:19:59;60.42;;;38.85;;
77612;SDS011;66777;52.282;5.960;2023-05-09T06:22:24;62.38;;;38.53;;
77612;SDS011;66777;52.282;5.960;2023-05-09T06:24:50;55.63;;;41.15;;
77612;SDS011;66777;52.282;5.960;2023-05-09T06:27:16;64.03;;;55.30;;
77612;SDS011;66777;52.282;5.960;2023-05-09T06:29:41;58.65;;;52.42;;
77612;SDS011;66777;52.282;5.960;2023-05-09T06:32:07;55.35;;;39.80;;
77612;SDS011;66777;52.282;5.960;2023-05-09T06:34:33;64.88;;;57.53;;
77612;SDS011;66777;52.282;5.960;2023-05-09T06:36:59;53.00;;;38.70;;
77612;SDS011;66777;52.282;5.960;2023-05-09T06:39:25;56.60;;;39.92;;
77612;SDS011;66777;52.282;5.960;2023-05-09T06:41:50;52.85;;;38.75;;
77612;SDS011;66777;52.282;5.960;2023-05-09T06:44:16;51.65;;;38.17;;
77612;SDS011;66777;52.282;5.960;2023-05-09T06:46:42;52.90;;;43.88;;
77612;SDS011;66777;52.282;5.960;2023-05-09T06:49:08;67.80;;;61.30;;
77612;SDS011;66777;52.282;5.960;2023-05-09T06:51:34;49.45;;;40.72;;
77612;SDS011;66777;52.282;5.960;2023-05-09T06:54:00;50.67;;;40.90;;
77612;SDS011;66777;52.282;5.960;2023-05-09T06:56:26;48.60;;;43.35;;
77612;SDS011;66777;52.282;5.960;2023-05-09T06:58:51;44.08;;;39.47;;
77612;SDS011;66777;52.282;5.960;2023-05-09T07:01:17;43.83;;;39.28;;
77612;SDS011;66777;52.282;5.960;2023-05-09T07:03:43;48.83;;;41.70;;
77612;SDS011;66777;52.282;5.960;2023-05-09T07:06:11;62.00;;;56.63;;
77612;SDS011;66777;52.282;5.960;2023-05-09T07:08:37;59.95;;;54.92;;
77612;SDS011;66777;52.282;5.960;2023-05-09T07:11:03;49.97;;;45.17;;
77612;SDS011;66777;52.282;5.960;2023-05-09T07:13:29;43.78;;;39.38;;
77612;SDS011;66777;52.282;5.960;2023-05-09T07:15:55;45.33;;;40.65;;
77612;SDS011;66777;52.282;5.960;2023-05-09T07:18:21;65.30;;;59.72;;
77612;SDS011;66777;52.282;5.960;2023-05-09T07:20:47;62.10;;;56.58;;
77612;SDS011;66777;52.282;5.960;2023-05-09T07:23:13;45.15;;;40.30;;
77612;SDS011;66777;52.282;5.960;2023-05-09T07:25:39;43.05;;;38.58;;
77612;SDS011;66777;52.282;5.960;2023-05-09T07:28:05;47.22;;;42.72;;
77612;SDS011;66777;52.282;5.960;2023-05-09T07:30:31;43.95;;;39.53;;
77612;SDS011;66777;52.282;5.960;2023-05-09T07:32:57;45.92;;;41.42;;
77612;SDS011;66777;52.282;5.960;2023-05-09T07:35:23;43.75;;;39.47;;
77612;SDS011;66777;52.282;5.960;2023-05-09T07:37:50;41.85;;;37.75;;
77612;SDS011;66777;52.282;5.960;2023-05-09T07:40:16;45.45;;;41.10;;
77612;SDS011;66777;52.282;5.960;2023-05-09T07:42:41;47.25;;;43.05;;
77612;SDS011;66777;52.282;5.960;2023-05-09T07:45:13;43.67;;;39.47;;
77612;SDS011;66777;52.282;5.960;2023-05-09T07:47:40;42.25;;;38.35;;
77612;SDS011;66777;52.282;5.960;2023-05-09T07:50:06;41.55;;;37.65;;
77612;SDS011;66777;52.282;5.960;2023-05-09T07:52:32;41.20;;;37.03;;
77612;SDS011;66777;52.282;5.960;2023-05-09T07:54:58;44.03;;;40.33;;
77612;SDS011;66777;52.282;5.960;2023-05-09T07:57:24;41.75;;;38.05;;
77612;SDS011;66777;52.282;5.960;2023-05-09T07:59:50;45.40;;;41.70;;
77612;SDS011;66777;52.282;5.960;2023-05-09T08:02:16;42.53;;;38.58;;
77612;SDS011;66777;52.282;5.960;2023-05-09T08:04:42;42.05;;;38.47;;
77612;SDS011;66777;52.282;5.960;2023-05-09T08:07:08;42.78;;;39.30;;
77612;SDS011;66777;52.282;5.960;2023-05-09T08:09:35;46.45;;;42.85;;
77612;SDS011;66777;52.282;5.960;2023-05-09T08:12:01;46.03;;;42.38;;
77612;SDS011;66777;52.282;5.960;2023-05-09T08:14:28;47.92;;;44.42;;
77612;SDS011;66777;52.282;5.960;2023-05-09T08:16:54;47.85;;;44.08;;
77612;SDS011;66777;52.282;5.960;2023-05-09T08:19:20;43.05;;;39.63;;
77612;SDS011;66777;52.282;5.960;2023-05-09T08:21:48;47.67;;;44.00;;
77612;SDS011;66777;52.282;5.960;2023-05-09T08:24:14;41.75;;;38.60;;
77612;SDS011;66777;52.282;5.960;2023-05-09T08:26:40;46.30;;;42.53;;
77612;SDS011;66777;52.282;5.960;2023-05-09T08:29:05;47.42;;;43.67;;
77612;SDS011;66777;52.282;5.960;2023-05-09T08:31:31;42.42;;;39.25;;
77612;SDS011;66777;52.282;5.960;2023-05-09T08:33:57;60.00;;;56.40;;
77612;SDS011;66777;52.282;5.960;2023-05-09T08:36:23;49.50;;;46.05;;
77612;SDS011;66777;52.282;5.960;2023-05-09T08:38:49;51.13;;;47.78;;
77612;SDS011;66777;52.282;5.960;2023-05-09T08:41:15;46.55;;;43.33;;
77612;SDS011;66777;52.282;5.960;2023-05-09T08:43:41;68.47;;;64.72;;
77612;SDS011;66777;52.282;5.960;2023-05-09T08:46:08;50.15;;;46.67;;
77612;SDS011;66777;52.282;5.960;2023-05-09T08:48:35;46.50;;;42.95;;
77612;SDS011;66777;52.282;5.960;2023-05-09T08:51:02;48.72;;;45.15;;
77612;SDS011;66777;52.282;5.960;2023-05-09T08:53:29;52.22;;;49.03;;
77612;SDS011;66777;52.282;5.960;2023-05-09T08:55:57;52.17;;;48.97;;
77612;SDS011;66777;52.282;5.960;2023-05-09T08:58:23;48.58;;;45.58;;
77612;SDS011;66777;52.282;5.960;2023-05-09T09:00:49;49.25;;;46.08;;
77612;SDS011;66777;52.282;5.960;2023-05-09T09:03:15;71.55;;;67.57;;
77612;SDS011;66777;52.282;5.960;2023-05-09T09:05:42;52.00;;;48.95;;
77612;SDS011;66777;52.282;5.960;2023-05-09T09:08:10;72.40;;;68.53;;
77612;SDS011;66777;52.282;5.960;2023-05-09T09:10:38;52.17;;;49.05;;
77612;SDS011;66777;52.282;5.960;2023-05-09T09:13:12;74.55;;;70.85;;
77612;SDS011;66777;52.282;5.960;2023-05-09T09:15:39;50.30;;;47.15;;
77612;SDS011;66777;52.282;5.960;2023-05-09T09:18:08;52.03;;;48.90;;
77612;SDS011;66777;52.282;5.960;2023-05-09T09:20:36;50.17;;;46.85;;
77612;SDS011;66777;52.282;5.960;2023-05-09T09:25:34;70.53;;;66.72;;
77612;SDS011;66777;52.282;5.960;2023-05-09T09:28:01;65.10;;;61.33;;
77612;SDS011;66777;52.282;5.960;2023-05-09T09:30:28;48.47;;;45.40;;
77612;SDS011;66777;52.282;5.960;2023-05-09T09:32:54;47.35;;;44.25;;
77612;SDS011;66777;52.282;5.960;2023-05-09T09:35:23;55.22;;;51.75;;
77612;SDS011;66777;52.282;5.960;2023-05-09T09:37:50;53.30;;;49.72;;
77612;SDS011;66777;52.282;5.960;2023-05-09T09:40:21;67.05;;;63.35;;
77612;SDS011;66777;52.282;5.960;2023-05-09T09:42:50;62.72;;;59.17;;
77612;SDS011;66777;52.282;5.960;2023-05-09T09:45:18;68.47;;;64.50;;
77612;SDS011;66777;52.282;5.960;2023-05-09T09:47:46;49.65;;;46.35;;
77612;SDS011;66777;52.282;5.960;2023-05-09T09:50:17;50.25;;;46.70;;
77612;SDS011;66777;52.282;5.960;2023-05-09T09:52:51;51.60;;;48.10;;
77612;SDS011;66777;52.282;5.960;2023-05-09T09:55:18;61.28;;;57.22;;
77612;SDS011;66777;52.282;5.960;2023-05-09T09:57:45;47.78;;;44.22;;
77612;SDS011;66777;52.282;5.960;2023-05-09T10:00:13;64.30;;;60.30;;
77612;SDS011;66777;52.282;5.960;2023-05-09T10:07:49;43.47;;;40.17;;
77612;SDS011;66777;52.282;5.960;2023-05-09T10:10:20;43.42;;;40.40;;
77612;SDS011;66777;52.282;5.960;2023-05-09T10:12:47;62.97;;;59.13;;
77612;SDS011;66777;52.282;5.960;2023-05-09T10:15:15;42.22;;;38.95;;
77612;SDS011;66777;52.282;5.960;2023-05-09T10:17:46;65.00;;;61.53;;
77612;SDS011;66777;52.282;5.960;2023-05-09T10:20:14;44.50;;;41.67;;
77612;SDS011;66777;52.282;5.960;2023-05-09T10:22:42;50.90;;;47.58;;
77612;SDS011;66777;52.282;5.960;2023-05-09T10:27:45;45.30;;;42.47;;
77612;SDS011;66777;52.282;5.960;2023-05-09T10:30:14;41.53;;;38.78;;
77612;SDS011;66777;52.282;5.960;2023-05-09T10:32:53;63.78;;;60.50;;
77612;SDS011;66777;52.282;5.960;2023-05-09T10:35:26;48.33;;;45.38;;
77612;SDS011;66777;52.282;5.960;2023-05-09T10:37:57;47.40;;;44.38;;
77612;SDS011;66777;52.282;5.960;2023-05-09T10:40:27;49.42;;;46.38;;
77612;SDS011;66777;52.282;5.960;2023-05-09T10:42:56;49.47;;;46.67;;
77612;SDS011;66777;52.282;5.960;2023-05-09T10:45:22;44.45;;;41.72;;
77612;SDS011;66777;52.282;5.960;2023-05-09T10:47:49;47.60;;;45.10;;
77612;SDS011;66777;52.282;5.960;2023-05-09T10:50:17;45.78;;;43.17;;
77612;SDS011;66777;52.282;5.960;2023-05-09T10:55:54;66.57;;;63.58;;
77612;SDS011;66777;52.282;5.960;2023-05-09T10:58:30;48.15;;;45.72;;
77612;SDS011;66777;52.282;5.960;2023-05-09T11:01:05;47.13;;;44.78;;
77612;SDS011;66777;52.282;5.960;2023-05-09T11:14:32;67.82;;;64.82;;
77612;SDS011;66777;52.282;5.960;2023-05-09T11:22:41;43.35;;;41.05;;
77612;SDS011;66777;52.282;5.960;2023-05-09T11:27:45;41.45;;;39.25;;
77612;SDS011;66777;52.282;5.960;2023-05-09T11:30:15;58.47;;;55.78;;
77612;SDS011;66777;52.282;5.960;2023-05-09T11:32:52;61.80;;;58.83;;
77612;SDS011;66777;52.282;5.960;2023-05-09T11:35:22;41.28;;;39.03;;
77612;SDS011;66777;52.282;5.960;2023-05-09T11:37:53;37.05;;;35.03;;
77612;SDS011;66777;52.282;5.960;2023-05-09T11:40:24;37.63;;;35.63;;
77612;SDS011;66777;52.282;5.960;2023-05-09T11:42:51;41.35;;;39.15;;
77612;SDS011;66777;52.282;5.960;2023-05-09T11:45:18;38.72;;;36.15;;
77612;SDS011;66777;52.282;5.960;2023-05-09T11:47:48;43.72;;;41.42;;
77612;SDS011;66777;52.282;5.960;2023-05-09T11:50:15;37.53;;;35.33;;
77612;SDS011;66777;52.282;5.960;2023-05-09T11:52:43;43.17;;;40.97;;
77612;SDS011;66777;52.282;5.960;2023-05-09T11:55:10;42.38;;;39.65;;
77612;SDS011;66777;52.282;5.960;2023-05-09T11:57:41;39.55;;;37.08;;
77612;SDS011;66777;52.282;5.960;2023-05-09T12:00:09;43.53;;;41.13;;
77612;SDS011;66777;52.282;5.960;2023-05-09T12:02:37;56.45;;;53.72;;
77612;SDS011;66777;52.282;5.960;2023-05-09T12:05:07;38.05;;;35.80;;
77612;SDS011;66777;52.282;5.960;2023-05-09T12:07:35;38.85;;;36.58;;
77612;SDS011;66777;52.282;5.960;2023-05-09T12:10:05;53.95;;;51.28;;
77612;SDS011;66777;52.282;5.960;2023-05-09T12:12:32;36.10;;;33.88;;
77612;SDS011;66777;52.282;5.960;2023-05-09T12:15:06;36.10;;;33.70;;
77612;SDS011;66777;52.282;5.960;2023-05-09T12:17:33;37.28;;;34.97;;
77612;SDS011;66777;52.282;5.960;2023-05-09T12:19:59;54.90;;;52.00;;
77612;SDS011;66777;52.282;5.960;2023-05-09T12:22:28;35.50;;;33.55;;
77612;SDS011;66777;52.282;5.960;2023-05-09T12:24:55;35.72;;;33.60;;
77612;SDS011;66777;52.282;5.960;2023-05-09T12:27:22;36.08;;;33.97;;
77612;SDS011;66777;52.282;5.960;2023-05-09T12:29:51;38.40;;;36.10;;
77612;SDS011;66777;52.282;5.960;2023-05-09T12:32:17;34.78;;;32.63;;
77612;SDS011;66777;52.282;5.960;2023-05-09T12:34:43;37.15;;;34.95;;
77612;SDS011;66777;52.282;5.960;2023-05-09T12:37:16;35.53;;;33.38;;
77612;SDS011;66777;52.282;5.960;2023-05-09T12:39:43;36.40;;;34.30;;
77612;SDS011;66777;52.282;5.960;2023-05-09T12:42:25;34.47;;;32.55;;
77612;SDS011;66777;52.282;5.960;2023-05-09T12:44:53;38.60;;;36.35;;
77612;SDS011;66777;52.282;5.960;2023-05-09T12:47:19;51.03;;;48.60;;
77612;SDS011;66777;52.282;5.960;2023-05-09T12:49:47;35.42;;;33.53;;
77612;SDS011;66777;52.282;5.960;2023-05-09T12:54:45;32.70;;;30.80;;
77612;SDS011;66777;52.282;5.960;2023-05-09T12:57:23;46.03;;;43.83;;
77612;SDS011;66777;52.282;5.960;2023-05-09T12:59:56;37.45;;;35.45;;
77612;SDS011;66777;52.282;5.960;2023-05-09T13:02:26;34.15;;;32.35;;
77612;SDS011;66777;52.282;5.960;2023-05-09T13:05:05;36.42;;;34.53;;
77612;SDS011;66777;52.282;5.960;2023-05-09T13:07:41;49.53;;;47.28;;
77612;SDS011;66777;52.282;5.960;2023-05-09T13:10:13;35.08;;;33.10;;
77612;SDS011;66777;52.282;5.960;2023-05-09T13:12:43;50.38;;;48.10;;
77612;SDS011;66777;52.282;5.960;2023-05-09T13:15:09;32.60;;;30.90;;
77612;SDS011;66777;52.282;5.960;2023-05-09T13:17:36;33.33;;;31.63;;
77612;SDS011;66777;52.282;5.960;2023-05-09T13:20:02;35.45;;;33.55;;
77612;SDS011;66777;52.282;5.960;2023-05-09T13:22:32;33.63;;;32.00;;
77612;SDS011;66777;52.282;5.960;2023-05-09T13:24:59;35.25;;;33.50;;
77612;SDS011;66777;52.282;5.960;2023-05-09T13:27:26;52.67;;;50.38;;
77612;SDS011;66777;52.282;5.960;2023-05-09T13:29:52;37.90;;;35.72;;
77612;SDS011;66777;52.282;5.960;2023-05-09T13:32:18;33.25;;;31.65;;
77612;SDS011;66777;52.282;5.960;2023-05-09T13:34:44;33.90;;;32.10;;
77612;SDS011;66777;52.282;5.960;2023-05-09T13:37:11;34.00;;;32.20;;
77612;SDS011;66777;52.282;5.960;2023-05-09T13:39:37;32.72;;;31.10;;
77612;SDS011;66777;52.282;5.960;2023-05-09T13:42:02;31.90;;;30.23;;
77612;SDS011;66777;52.282;5.960;2023-05-09T13:44:28;32.40;;;30.48;;
77612;SDS011;66777;52.282;5.960;2023-05-09T13:46:54;32.70;;;31.08;;
77612;SDS011;66777;52.282;5.960;2023-05-09T13:49:22;33.53;;;31.92;;
77612;SDS011;66777;52.282;5.960;2023-05-09T13:51:48;31.60;;;29.88;;
77612;SDS011;66777;52.282;5.960;2023-05-09T13:54:15;46.35;;;44.20;;
77612;SDS011;66777;52.282;5.960;2023-05-09T13:56:43;51.58;;;49.28;;
77612;SDS011;66777;52.282;5.960;2023-05-09T13:59:09;55.38;;;53.05;;
77612;SDS011;66777;52.282;5.960;2023-05-09T14:01:36;33.42;;;31.73;;
77612;SDS011;66777;52.282;5.960;2023-05-09T14:04:01;32.58;;;31.00;;
77612;SDS011;66777;52.282;5.960;2023-05-09T14:06:28;32.28;;;30.58;;
77612;SDS011;66777;52.282;5.960;2023-05-09T14:08:57;32.20;;;30.70;;
77612;SDS011;66777;52.282;5.960;2023-05-09T14:11:23;32.95;;;31.02;;
77612;SDS011;66777;52.282;5.960;2023-05-09T14:13:50;51.75;;;49.47;;
77612;SDS011;66777;52.282;5.960;2023-05-09T14:16:19;33.53;;;31.92;;
77612;SDS011;66777;52.282;5.960;2023-05-09T14:18:45;50.33;;;47.78;;
77612;SDS011;66777;52.282;5.960;2023-05-09T14:21:11;35.38;;;33.67;;
77612;SDS011;66777;52.282;5.960;2023-05-09T14:23:37;30.40;;;29.00;;
77612;SDS011;66777;52.282;5.960;2023-05-09T14:26:03;31.20;;;29.50;;
77612;SDS011;66777;52.282;5.960;2023-05-09T14:28:29;33.90;;;32.10;;
77612;SDS011;66777;52.282;5.960;2023-05-09T14:30:55;34.90;;;33.30;;
77612;SDS011;66777;52.282;5.960;2023-05-09T14:33:22;36.45;;;34.75;;
77612;SDS011;66777;52.282;5.960;2023-05-09T14:35:48;44.58;;;42.55;;
77612;SDS011;66777;52.282;5.960;2023-05-09T14:38:14;31.42;;;30.00;;
77612;SDS011;66777;52.282;5.960;2023-05-09T14:40:40;32.85;;;31.45;;
77612;SDS011;66777;52.282;5.960;2023-05-09T14:43:07;30.45;;;28.95;;
77612;SDS011;66777;52.282;5.960;2023-05-09T14:45:33;30.15;;;28.85;;
77612;SDS011;66777;52.282;5.960;2023-05-09T14:47:59;29.30;;;27.80;;
77612;SDS011;66777;52.282;5.960;2023-05-09T14:50:26;43.05;;;41.22;;
77612;SDS011;66777;52.282;5.960;2023-05-09T14:52:53;28.88;;;27.48;;
77612;SDS011;66777;52.282;5.960;2023-05-09T14:55:19;29.42;;;27.98;;
77612;SDS011;66777;52.282;5.960;2023-05-09T14:57:48;28.25;;;26.85;;
77612;SDS011;66777;52.282;5.960;2023-05-09T15:00:14;26.80;;;25.40;;
77612;SDS011;66777;52.282;5.960;2023-05-09T15:02:40;30.17;;;28.77;;
77612;SDS011;66777;52.282;5.960;2023-05-09T15:05:06;30.48;;;28.73;;